sensor_id;sensor_type;location;lat;lon;timestamp;pressure;altitude;pressure_sealevel;temperature;humidity
79589;BME280;69067;51.930;4.492;2023-12-20T00:01:36;101573.66;;;23.64;36.90
79589;BME280;69067;51.930;4.492;2023-12-20T00:04:05;101582.25;;;23.68;37.31
79589;BME280;69067;51.930;4.492;2023-12-20T00:06:31;101582.16;;;23.61;36.90
79589;BME280;69067;51.930;4.492;2023-12-20T00:08:57;101576.06;;;23.59;37.25
79589;BME280;69067;51.930;4.492;2023-12-20T00:11:25;101586.75;;;23.61;37.00
79589;BME280;69067;51.930;4.492;2023-12-20T00:13:51;101580.84;;;23.72;37.43
79589;BME280;69067;51.930;4.492;2023-12-20T00:16:17;101579.78;;;23.73;36.89
79589;BME280;69067;51.930;4.492;2023-12-20T00:18:43;101565.50;;;23.64;37.15
79589;BME280;69067;51.930;4.492;2023-12-20T00:21:09;101573.16;;;23.61;37.01
79589;BME280;69067;51.930;4.492;2023-12-20T00:23:34;101568.22;;;23.64;37.01
79589;BME280;69067;51.930;4.492;2023-12-20T00:26:00;101571.78;;;23.65;37.06
79589;BME280;69067;51.930;4.492;2023-12-20T00:28:26;101574.19;;;23.60;37.40
79589;BME280;69067;51.930;4.492;2023-12-20T00:30:51;101563.72;;;23.57;37.52
79589;BME280;69067;51.930;4.492;2023-12-20T00:33:17;101561.63;;;23.59;37.10
79589;BME280;69067;51.930;4.492;2023-12-20T00:35:43;101564.75;;;23.55;36.73
79589;BME280;69067;51.930;4.492;2023-12-20T00:38:08;101572.31;;;23.60;37.48
79589;BME280;69067;51.930;4.492;2023-12-20T00:40:35;101575.81;;;23.54;37.51
79589;BME280;69067;51.930;4.492;2023-12-20T00:43:01;101574.50;;;23.50;37.02
79589;BME280;69067;51.930;4.492;2023-12-20T00:45:26;101581.66;;;23.51;37.52
79589;BME280;69067;51.930;4.492;2023-12-20T00:47:52;101576.66;;;23.54;37.05
79589;BME280;69067;51.930;4.492;2023-12-20T00:50:18;101573.28;;;23.52;37.58
79589;BME280;69067;51.930;4.492;2023-12-20T00:52:43;101577.75;;;23.60;37.22
79589;BME280;69067;51.930;4.492;2023-12-20T00:55:09;101565.84;;;23.61;37.24
79589;BME280;69067;51.930;4.492;2023-12-20T00:57:35;101565.34;;;23.51;37.37
79589;BME280;69067;51.930;4.492;2023-12-20T01:00:00;101553.63;;;23.50;37.90
79589;BME280;69067;51.930;4.492;2023-12-20T01:02:26;101557.38;;;23.49;37.50
79589;BME280;69067;51.930;4.492;2023-12-20T01:04:52;101571.13;;;23.48;37.65
79589;BME280;69067;51.930;4.492;2023-12-20T01:07:18;101582.47;;;23.51;37.36
79589;BME280;69067;51.930;4.492;2023-12-20T01:09:44;101588.09;;;23.50;37.62
79589;BME280;69067;51.930;4.492;2023-12-20T01:12:09;101594.75;;;23.47;38.08
79589;BME280;69067;51.930;4.492;2023-12-20T01:14:35;101583.75;;;23.41;37.40
79589;BME280;69067;51.930;4.492;2023-12-20T01:17:01;101582.00;;;23.48;37.26
79589;BME280;69067;51.930;4.492;2023-12-20T01:19:27;101580.28;;;23.47;37.31
79589;BME280;69067;51.930;4.492;2023-12-20T01:21:54;101583.69;;;23.49;37.36
79589;BME280;69067;51.930;4.492;2023-12-20T01:24:20;101579.00;;;23.43;37.78
79589;BME280;69067;51.930;4.492;2023-12-20T01:26:46;101580.47;;;23.45;37.26
79589;BME280;69067;51.930;4.492;2023-12-20T01:29:12;101581.31;;;23.46;37.18
79589;BME280;69067;51.930;4.492;2023-12-20T01:31:39;101573.91;;;23.40;37.99
79589;BME280;69067;51.930;4.492;2023-12-20T01:34:06;101575.25;;;23.44;37.81
79589;BME280;69067;51.930;4.492;2023-12-20T01:36:32;101584.88;;;23.46;38.21
79589;BME280;69067;51.930;4.492;2023-12-20T01:38:58;101578.44;;;23.47;37.43
79589;BME280;69067;51.930;4.492;2023-12-20T01:41:23;101569.41;;;23.47;38.02
79589;BME280;69067;51.930;4.492;2023-12-20T01:43:49;101565.34;;;23.51;37.32
79589;BME280;69067;51.930;4.492;2023-12-20T01:46:15;101574.84;;;23.47;37.58
79589;BME280;69067;51.930;4.492;2023-12-20T01:48:41;101567.38;;;23.49;37.44
79589;BME280;69067;51.930;4.492;2023-12-20T01:51:07;101559.06;;;23.50;37.62
79589;BME280;69067;51.930;4.492;2023-12-20T01:53:34;101566.88;;;23.60;37.46
79589;BME280;69067;51.930;4.492;2023-12-20T01:56:01;101554.81;;;23.48;37.35
79589;BME280;69067;51.930;4.492;2023-12-20T01:58:27;101568.22;;;23.49;37.58
79589;BME280;69067;51.930;4.492;2023-12-20T02:00:54;101573.50;;;23.51;37.43
79589;BME280;69067;51.930;4.492;2023-12-20T02:03:21;101564.38;;;23.44;37.48
79589;BME280;69067;51.930;4.492;2023-12-20T02:05:47;101576.91;;;23.45;37.85
79589;BME280;69067;51.930;4.492;2023-12-20T02:08:13;101567.84;;;23.52;37.30
79589;BME280;69067;51.930;4.492;2023-12-20T02:10:40;101570.78;;;23.72;37.40
79589;BME280;69067;51.930;4.492;2023-12-20T02:13:06;101574.50;;;23.50;37.74
79589;BME280;69067;51.930;4.492;2023-12-20T02:15:32;101563.31;;;23.45;38.26
79589;BME280;69067;51.930;4.492;2023-12-20T02:17:57;101571.13;;;23.48;37.40
79589;BME280;69067;51.930;4.492;2023-12-20T02:20:23;101576.56;;;23.48;37.54
79589;BME280;69067;51.930;4.492;2023-12-20T02:22:49;101563.66;;;23.50;37.20
79589;BME280;69067;51.930;4.492;2023-12-20T02:25:14;101573.34;;;23.44;38.25
79589;BME280;69067;51.930;4.492;2023-12-20T02:27:40;101551.25;;;23.47;37.63
79589;BME280;69067;51.930;4.492;2023-12-20T02:30:06;101556.84;;;23.46;37.41
79589;BME280;69067;51.930;4.492;2023-12-20T02:32:33;101555.06;;;23.38;38.15
79589;BME280;69067;51.930;4.492;2023-12-20T02:34:58;101570.75;;;23.36;37.88
79589;BME280;69067;51.930;4.492;2023-12-20T02:37:24;101555.00;;;23.32;38.35
79589;BME280;69067;51.930;4.492;2023-12-20T02:39:50;101554.91;;;23.40;37.35
79589;BME280;69067;51.930;4.492;2023-12-20T02:42:15;101551.50;;;23.38;38.17
79589;BME280;69067;51.930;4.492;2023-12-20T02:44:41;101543.19;;;23.39;37.69
79589;BME280;69067;51.930;4.492;2023-12-20T02:47:07;101549.94;;;23.43;38.03
79589;BME280;69067;51.930;4.492;2023-12-20T02:49:32;101547.59;;;23.40;37.58
79589;BME280;69067;51.930;4.492;2023-12-20T02:51:58;101545.06;;;23.39;38.19
79589;BME280;69067;51.930;4.492;2023-12-20T02:54:24;101543.44;;;23.44;37.93
79589;BME280;69067;51.930;4.492;2023-12-20T02:56:49;101541.78;;;23.43;37.77
79589;BME280;69067;51.930;4.492;2023-12-20T02:59:15;101539.44;;;23.40;38.01
79589;BME280;69067;51.930;4.492;2023-12-20T03:01:45;101535.28;;;23.44;37.58
79589;BME280;69067;51.930;4.492;2023-12-20T03:04:12;101533.22;;;23.46;37.62
79589;BME280;69067;51.930;4.492;2023-12-20T03:06:38;101532.38;;;23.46;37.89
79589;BME280;69067;51.930;4.492;2023-12-20T03:09:04;101528.50;;;23.48;37.82
79589;BME280;69067;51.930;4.492;2023-12-20T03:11:30;101530.50;;;23.46;37.87
79589;BME280;69067;51.930;4.492;2023-12-20T03:13:57;101524.22;;;23.46;37.89
79589;BME280;69067;51.930;4.492;2023-12-20T03:16:23;101527.72;;;23.40;37.50
79589;BME280;69067;51.930;4.492;2023-12-20T03:18:48;101528.38;;;23.42;37.67
79589;BME280;69067;51.930;4.492;2023-12-20T03:21:14;101519.56;;;23.40;37.86
79589;BME280;69067;51.930;4.492;2023-12-20T03:23:40;101527.72;;;23.40;37.41
79589;BME280;69067;51.930;4.492;2023-12-20T03:26:07;101537.94;;;23.38;37.62
79589;BME280;69067;51.930;4.492;2023-12-20T03:28:33;101532.03;;;23.34;38.03
79589;BME280;69067;51.930;4.492;2023-12-20T03:30:59;101531.19;;;23.34;37.79
79589;BME280;69067;51.930;4.492;2023-12-20T03:33:25;101543.28;;;23.31;37.70
79589;BME280;69067;51.930;4.492;2023-12-20T03:35:51;101534.84;;;23.41;37.83
79589;BME280;69067;51.930;4.492;2023-12-20T03:38:16;101534.75;;;23.34;38.28
79589;BME280;69067;51.930;4.492;2023-12-20T03:40:42;101531.84;;;23.36;38.07
79589;BME280;69067;51.930;4.492;2023-12-20T03:43:08;101547.13;;;23.37;38.00
79589;BME280;69067;51.930;4.492;2023-12-20T03:45:34;101545.91;;;23.39;37.34
79589;BME280;69067;51.930;4.492;2023-12-20T03:47:59;101549.09;;;23.43;37.94
79589;BME280;69067;51.930;4.492;2023-12-20T03:50:26;101541.69;;;23.37;37.70
79589;BME280;69067;51.930;4.492;2023-12-20T03:52:52;101530.75;;;23.30;38.15
79589;BME280;69067;51.930;4.492;2023-12-20T03:55:18;101533.25;;;23.32;38.38
79589;BME280;69067;51.930;4.492;2023-12-20T03:57:43;101543.38;;;23.52;37.56
79589;BME280;69067;51.930;4.492;2023-12-20T04:00:10;101538.16;;;23.51;37.79
79589;BME280;69067;51.930;4.492;2023-12-20T04:02:39;101529.13;;;23.36;37.24
79589;BME280;69067;51.930;4.492;2023-12-20T04:05:06;101540.22;;;23.49;37.71
79589;BME280;69067;51.930;4.492;2023-12-20T04:07:33;101528.94;;;23.52;37.37
79589;BME280;69067;51.930;4.492;2023-12-20T04:10:00;101529.84;;;23.44;37.52
79589;BME280;69067;51.930;4.492;2023-12-20T04:12:27;101530.63;;;23.38;37.64
79589;BME280;69067;51.930;4.492;2023-12-20T04:14:53;101528.38;;;23.42;37.97
79589;BME280;69067;51.930;4.492;2023-12-20T04:17:20;101532.50;;;23.38;38.03
79589;BME280;69067;51.930;4.492;2023-12-20T04:19:51;101525.94;;;23.32;37.88
79589;BME280;69067;51.930;4.492;2023-12-20T04:22:18;101527.44;;;23.35;37.64
79589;BME280;69067;51.930;4.492;2023-12-20T04:24:44;101526.13;;;23.31;37.85
79589;BME280;69067;51.930;4.492;2023-12-20T04:27:10;101537.19;;;23.44;37.64
79589;BME280;69067;51.930;4.492;2023-12-20T04:29:36;101530.84;;;23.37;37.88
79589;BME280;69067;51.930;4.492;2023-12-20T04:32:02;101514.53;;;23.37;37.78
79589;BME280;69067;51.930;4.492;2023-12-20T04:34:28;101516.59;;;23.35;38.02
79589;BME280;69067;51.930;4.492;2023-12-20T04:36:54;101525.09;;;23.32;37.97
79589;BME280;69067;51.930;4.492;2023-12-20T04:39:20;101524.06;;;23.33;38.31
79589;BME280;69067;51.930;4.492;2023-12-20T04:41:45;101511.34;;;23.33;38.02
79589;BME280;69067;51.930;4.492;2023-12-20T04:44:13;101503.28;;;23.25;37.63
79589;BME280;69067;51.930;4.492;2023-12-20T04:46:39;101508.69;;;23.40;37.71
79589;BME280;69067;51.930;4.492;2023-12-20T04:49:05;101502.72;;;23.30;37.99
79589;BME280;69067;51.930;4.492;2023-12-20T04:51:34;101507.50;;;23.28;38.51
79589;BME280;69067;51.930;4.492;2023-12-20T04:54:01;101500.34;;;23.41;37.97
79589;BME280;69067;51.930;4.492;2023-12-20T04:56:27;101483.19;;;23.41;37.33
79589;BME280;69067;51.930;4.492;2023-12-20T04:58:53;101491.00;;;23.29;37.81
79589;BME280;69067;51.930;4.492;2023-12-20T05:01:19;101488.84;;;23.25;37.84
79589;BME280;69067;51.930;4.492;2023-12-20T05:03:46;101502.34;;;23.47;37.79
79589;BME280;69067;51.930;4.492;2023-12-20T05:06:11;101495.28;;;23.38;37.50
79589;BME280;69067;51.930;4.492;2023-12-20T05:08:37;101500.28;;;23.35;37.34
79589;BME280;69067;51.930;4.492;2023-12-20T05:11:03;101505.06;;;23.33;37.42
79589;BME280;69067;51.930;4.492;2023-12-20T05:13:29;101501.88;;;23.29;37.69
79589;BME280;69067;51.930;4.492;2023-12-20T05:15:55;101513.59;;;23.30;37.50
79589;BME280;69067;51.930;4.492;2023-12-20T05:18:21;101516.59;;;23.35;37.42
79589;BME280;69067;51.930;4.492;2023-12-20T05:20:49;101522.38;;;23.32;38.02
79589;BME280;69067;51.930;4.492;2023-12-20T05:23:15;101518.53;;;23.41;37.64
79589;BME280;69067;51.930;4.492;2023-12-20T05:25:42;101508.16;;;23.30;37.39
79589;BME280;69067;51.930;4.492;2023-12-20T05:28:08;101517.50;;;23.42;37.91
79589;BME280;69067;51.930;4.492;2023-12-20T05:30:34;101508.44;;;23.35;37.40
79589;BME280;69067;51.930;4.492;2023-12-20T05:32:59;101511.16;;;23.35;38.14
79589;BME280;69067;51.930;4.492;2023-12-20T05:35:25;101508.63;;;23.33;37.72
79589;BME280;69067;51.930;4.492;2023-12-20T05:37:51;101503.09;;;23.27;38.10
79589;BME280;69067;51.930;4.492;2023-12-20T05:40:17;101511.25;;;23.27;37.59
79589;BME280;69067;51.930;4.492;2023-12-20T05:42:43;101507.25;;;23.23;37.69
79589;BME280;69067;51.930;4.492;2023-12-20T05:45:09;101497.22;;;23.23;37.67
79589;BME280;69067;51.930;4.492;2023-12-20T05:47:34;101496.91;;;23.33;37.67
79589;BME280;69067;51.930;4.492;2023-12-20T05:50:03;101499.72;;;23.25;37.94
79589;BME280;69067;51.930;4.492;2023-12-20T05:52:29;101500.47;;;23.48;37.57
79589;BME280;69067;51.930;4.492;2023-12-20T05:54:55;101500.19;;;23.28;37.86
79589;BME280;69067;51.930;4.492;2023-12-20T05:57:23;101500.19;;;23.28;37.51
79589;BME280;69067;51.930;4.492;2023-12-20T05:59:49;101500.66;;;23.32;37.64
79589;BME280;69067;51.930;4.492;2023-12-20T06:02:14;101504.31;;;23.24;37.76
79589;BME280;69067;51.930;4.492;2023-12-20T06:04:42;101507.88;;;23.25;38.15
79589;BME280;69067;51.930;4.492;2023-12-20T06:07:12;101503.47;;;23.24;37.36
79589;BME280;69067;51.930;4.492;2023-12-20T06:09:38;101512.34;;;23.32;38.00
79589;BME280;69067;51.930;4.492;2023-12-20T06:12:04;101503.19;;;23.33;38.06
79589;BME280;69067;51.930;4.492;2023-12-20T06:14:31;101502.06;;;23.28;37.33
79589;BME280;69067;51.930;4.492;2023-12-20T06:16:57;101500.31;;;23.20;37.62
79589;BME280;69067;51.930;4.492;2023-12-20T06:19:23;101507.31;;;23.29;37.79
79589;BME280;69067;51.930;4.492;2023-12-20T06:21:48;101504.59;;;23.29;37.11
79589;BME280;69067;51.930;4.492;2023-12-20T06:24:14;101502.91;;;23.28;37.21
79589;BME280;69067;51.930;4.492;2023-12-20T06:26:40;101501.81;;;23.23;38.05
79589;BME280;69067;51.930;4.492;2023-12-20T06:29:05;101497.41;;;23.22;37.71
79589;BME280;69067;51.930;4.492;2023-12-20T06:31:32;101496.63;;;23.28;37.39
79589;BME280;69067;51.930;4.492;2023-12-20T06:33:58;101496.81;;;23.26;37.18
79589;BME280;69067;51.930;4.492;2023-12-20T06:36:28;101502.00;;;23.21;38.39
79589;BME280;69067;51.930;4.492;2023-12-20T06:38:54;101487.09;;;23.17;37.03
79589;BME280;69067;51.930;4.492;2023-12-20T06:41:19;101500.66;;;23.17;37.86
79589;BME280;69067;51.930;4.492;2023-12-20T06:43:45;101487.84;;;23.11;38.15
79589;BME280;69067;51.930;4.492;2023-12-20T06:46:11;101492.91;;;23.14;37.72
79589;BME280;69067;51.930;4.492;2023-12-20T06:48:38;101495.53;;;23.22;37.83
79589;BME280;69067;51.930;4.492;2023-12-20T06:51:05;101504.53;;;23.23;38.30
79589;BME280;69067;51.930;4.492;2023-12-20T06:53:30;101498.69;;;23.26;37.98
79589;BME280;69067;51.930;4.492;2023-12-20T06:55:56;101496.91;;;23.33;38.21
79589;BME280;69067;51.930;4.492;2023-12-20T06:58:23;101490.78;;;23.45;36.84
79589;BME280;69067;51.930;4.492;2023-12-20T07:00:48;101497.94;;;23.32;37.27
79589;BME280;69067;51.930;4.492;2023-12-20T07:03:14;101484.75;;;23.29;38.22
79589;BME280;69067;51.930;4.492;2023-12-20T07:05:40;101480.69;;;23.25;38.72
79589;BME280;69067;51.930;4.492;2023-12-20T07:08:06;101475.25;;;23.25;39.19
79589;BME280;69067;51.930;4.492;2023-12-20T07:10:32;101468.97;;;23.24;38.36
79589;BME280;69067;51.930;4.492;2023-12-20T07:12:58;101472.94;;;23.22;39.26
79589;BME280;69067;51.930;4.492;2023-12-20T07:15:24;101470.03;;;23.23;39.66
79589;BME280;69067;51.930;4.492;2023-12-20T07:17:49;101469.38;;;23.21;39.08
79589;BME280;69067;51.930;4.492;2023-12-20T07:20:15;101476.28;;;23.24;39.26
79589;BME280;69067;51.930;4.492;2023-12-20T07:22:41;101473.63;;;23.09;39.11
79589;BME280;69067;51.930;4.492;2023-12-20T07:25:07;101465.94;;;23.12;38.93
79589;BME280;69067;51.930;4.492;2023-12-20T07:27:33;101468.81;;;23.11;39.42
79589;BME280;69067;51.930;4.492;2023-12-20T07:29:59;101458.97;;;23.10;39.05
79589;BME280;69067;51.930;4.492;2023-12-20T07:32:24;101458.91;;;23.03;39.09
79589;BME280;69067;51.930;4.492;2023-12-20T07:34:50;101466.03;;;23.04;39.13
79589;BME280;69067;51.930;4.492;2023-12-20T07:37:16;101470.91;;;23.09;39.62
79589;BME280;69067;51.930;4.492;2023-12-20T07:39:42;101468.28;;;23.15;39.22
79589;BME280;69067;51.930;4.492;2023-12-20T07:42:08;101468.66;;;23.12;38.83
79589;BME280;69067;51.930;4.492;2023-12-20T07:44:34;101469.84;;;23.10;38.91
79589;BME280;69067;51.930;4.492;2023-12-20T07:47:01;101478.75;;;23.18;38.27
79589;BME280;69067;51.930;4.492;2023-12-20T07:49:27;101483.06;;;23.13;38.99
79589;BME280;69067;51.930;4.492;2023-12-20T07:51:53;101484.19;;;23.18;39.24
79589;BME280;69067;51.930;4.492;2023-12-20T07:54:19;101488.13;;;23.16;38.36
79589;BME280;69067;51.930;4.492;2023-12-20T07:56:46;101490.78;;;23.09;38.48
79589;BME280;69067;51.930;4.492;2023-12-20T07:59:12;101489.34;;;23.13;38.45
79589;BME280;69067;51.930;4.492;2023-12-20T08:01:38;101499.56;;;23.11;38.15
79589;BME280;69067;51.930;4.492;2023-12-20T08:04:03;101495.53;;;23.07;38.91
79589;BME280;69067;51.930;4.492;2023-12-20T08:06:29;101496.94;;;23.03;38.59
79589;BME280;69067;51.930;4.492;2023-12-20T08:08:55;101500.03;;;23.00;39.14
79589;BME280;69067;51.930;4.492;2023-12-20T08:11:20;101494.78;;;22.99;38.46
79589;BME280;69067;51.930;4.492;2023-12-20T08:13:46;101502.28;;;22.97;38.95
79589;BME280;69067;51.930;4.492;2023-12-20T08:16:12;101500.59;;;22.96;38.86
79589;BME280;69067;51.930;4.492;2023-12-20T08:18:39;101508.47;;;23.05;38.49
79589;BME280;69067;51.930;4.492;2023-12-20T08:21:05;101482.91;;;23.00;38.45
79589;BME280;69067;51.930;4.492;2023-12-20T08:23:34;101483.84;;;23.07;38.69
79589;BME280;69067;51.930;4.492;2023-12-20T08:26:07;101469.69;;;22.97;38.91
79589;BME280;69067;51.930;4.492;2023-12-20T08:28:34;101479.59;;;23.04;38.07
79589;BME280;69067;51.930;4.492;2023-12-20T08:31:00;101481.47;;;23.04;37.97
79589;BME280;69067;51.930;4.492;2023-12-20T08:33:26;101486.91;;;23.04;38.23
79589;BME280;69067;51.930;4.492;2023-12-20T08:35:52;101475.19;;;23.03;38.12
79589;BME280;69067;51.930;4.492;2023-12-20T08:38:17;101485.88;;;23.05;37.78
79589;BME280;69067;51.930;4.492;2023-12-20T08:40:44;101504.63;;;23.00;37.68
79589;BME280;69067;51.930;4.492;2023-12-20T08:43:10;101517.72;;;23.11;37.70
79589;BME280;69067;51.930;4.492;2023-12-20T08:45:36;101510.91;;;23.15;37.98
79589;BME280;69067;51.930;4.492;2023-12-20T08:48:02;101499.47;;;23.05;38.11
79589;BME280;69067;51.930;4.492;2023-12-20T08:50:29;101502.94;;;23.13;37.60
79589;BME280;69067;51.930;4.492;2023-12-20T08:52:54;101510.69;;;23.16;37.52
79589;BME280;69067;51.930;4.492;2023-12-20T08:55:20;101511.75;;;23.15;37.85
79589;BME280;69067;51.930;4.492;2023-12-20T08:57:46;101511.50;;;23.32;37.01
79589;BME280;69067;51.930;4.492;2023-12-20T09:00:12;101501.91;;;23.14;37.81
79589;BME280;69067;51.930;4.492;2023-12-20T09:02:39;101505.00;;;23.11;38.29
79589;BME280;69067;51.930;4.492;2023-12-20T09:05:05;101488.31;;;23.14;37.68
79589;BME280;69067;51.930;4.492;2023-12-20T09:07:31;101489.94;;;23.09;37.73
79589;BME280;69067;51.930;4.492;2023-12-20T09:09:58;101486.22;;;23.16;37.85
79589;BME280;69067;51.930;4.492;2023-12-20T09:12:24;101489.44;;;23.20;37.90
79589;BME280;69067;51.930;4.492;2023-12-20T09:14:51;101482.88;;;23.14;38.34
79589;BME280;69067;51.930;4.492;2023-12-20T09:17:18;101482.88;;;23.14;38.00
79589;BME280;69067;51.930;4.492;2023-12-20T09:19:44;101478.66;;;23.12;37.50
79589;BME280;69067;51.930;4.492;2023-12-20T09:22:11;101476.94;;;23.26;37.91
79589;BME280;69067;51.930;4.492;2023-12-20T09:24:37;101499.09;;;23.23;37.38
79589;BME280;69067;51.930;4.492;2023-12-20T09:27:04;101487.94;;;23.17;37.67
79589;BME280;69067;51.930;4.492;2023-12-20T09:29:31;101481.72;;;23.24;37.04
79589;BME280;69067;51.930;4.492;2023-12-20T09:31:57;101474.06;;;23.12;37.91
79589;BME280;69067;51.930;4.492;2023-12-20T09:34:24;101475.00;;;23.20;37.16
79589;BME280;69067;51.930;4.492;2023-12-20T09:36:51;101495.31;;;23.24;36.90
79589;BME280;69067;51.930;4.492;2023-12-20T09:39:18;101490.19;;;23.14;37.59
79589;BME280;69067;51.930;4.492;2023-12-20T09:41:47;101482.56;;;23.24;37.26
79589;BME280;69067;51.930;4.492;2023-12-20T09:44:17;101495.91;;;23.19;37.46
79589;BME280;69067;51.930;4.492;2023-12-20T09:46:45;101483.53;;;23.16;37.68
79589;BME280;69067;51.930;4.492;2023-12-20T09:49:13;101494.38;;;23.16;37.34
79589;BME280;69067;51.930;4.492;2023-12-20T09:51:39;101484.00;;;23.05;37.60
79589;BME280;69067;51.930;4.492;2023-12-20T09:54:06;101502.28;;;23.11;37.85
79589;BME280;69067;51.930;4.492;2023-12-20T09:56:31;101496.66;;;23.13;37.78
79589;BME280;69067;51.930;4.492;2023-12-20T09:58:57;101496.22;;;23.09;38.04
79589;BME280;69067;51.930;4.492;2023-12-20T10:01:24;101497.88;;;23.10;37.29
79589;BME280;69067;51.930;4.492;2023-12-20T10:03:54;101504.53;;;23.08;38.14
79589;BME280;69067;51.930;4.492;2023-12-20T10:06:21;101497.88;;;23.10;37.44
79589;BME280;69067;51.930;4.492;2023-12-20T10:08:47;101482.72;;;23.01;37.73
79589;BME280;69067;51.930;4.492;2023-12-20T10:11:13;101491.13;;;23.06;37.68
79589;BME280;69067;51.930;4.492;2023-12-20T10:13:42;101486.06;;;23.03;37.32
79589;BME280;69067;51.930;4.492;2023-12-20T10:16:08;101488.16;;;23.01;37.39
79589;BME280;69067;51.930;4.492;2023-12-20T10:18:34;101483.34;;;23.03;37.76
79589;BME280;69067;51.930;4.492;2023-12-20T10:21:00;101473.53;;;23.02;38.13
79589;BME280;69067;51.930;4.492;2023-12-20T10:23:26;101499.47;;;23.05;37.54
79589;BME280;69067;51.930;4.492;2023-12-20T10:25:59;101496.66;;;22.98;38.01
79589;BME280;69067;51.930;4.492;2023-12-20T10:28:25;101490.97;;;23.08;38.05
79589;BME280;69067;51.930;4.492;2023-12-20T10:30:55;101486.47;;;23.00;38.00
79589;BME280;69067;51.930;4.492;2023-12-20T10:33:29;101491.31;;;23.05;38.44
79589;BME280;69067;51.930;4.492;2023-12-20T10:35:57;101486.06;;;23.03;37.56
79589;BME280;69067;51.930;4.492;2023-12-20T10:38:23;101483.44;;;23.10;37.64
79589;BME280;69067;51.930;4.492;2023-12-20T10:40:54;101484.69;;;23.07;38.06
79589;BME280;69067;51.930;4.492;2023-12-20T10:43:24;101484.28;;;23.10;37.31
79589;BME280;69067;51.930;4.492;2023-12-20T10:45:51;101479.91;;;23.09;37.69
79589;BME280;69067;51.930;4.492;2023-12-20T10:48:18;101476.53;;;23.07;37.49
79589;BME280;69067;51.930;4.492;2023-12-20T10:50:45;101469.78;;;23.03;37.62
79589;BME280;69067;51.930;4.492;2023-12-20T10:53:12;101461.44;;;23.05;37.87
79589;BME280;69067;51.930;4.492;2023-12-20T10:55:38;101469.59;;;23.05;36.92
79589;BME280;69067;51.930;4.492;2023-12-20T10:58:08;101462.94;;;23.07;38.02
79589;BME280;69067;51.930;4.492;2023-12-20T11:00:41;101464.41;;;23.10;37.56
79589;BME280;69067;51.930;4.492;2023-12-20T11:03:11;101455.91;;;23.13;37.15
79589;BME280;69067;51.930;4.492;2023-12-20T11:05:58;101463.22;;;23.12;37.82
79589;BME280;69067;51.930;4.492;2023-12-20T11:11:32;101451.56;;;23.18;37.30
79589;BME280;69067;51.930;4.492;2023-12-20T11:14:18;101460.19;;;23.22;37.54
79589;BME280;69067;51.930;4.492;2023-12-20T11:16:48;101454.94;;;23.21;37.29
79589;BME280;69067;51.930;4.492;2023-12-20T11:19:13;101455.41;;;23.24;38.09
79589;BME280;69067;51.930;4.492;2023-12-20T11:21:40;101454.94;;;23.21;37.45
79589;BME280;69067;51.930;4.492;2023-12-20T11:24:06;101445.13;;;23.20;37.59
79589;BME280;69067;51.930;4.492;2023-12-20T11:26:32;101458.13;;;23.24;37.65
79589;BME280;69067;51.930;4.492;2023-12-20T11:29:29;101445.38;;;23.25;38.11
79589;BME280;69067;51.930;4.492;2023-12-20T11:32:03;101439.94;;;23.25;38.06
79589;BME280;69067;51.930;4.492;2023-12-20T11:34:33;101436.19;;;23.26;37.24
79589;BME280;69067;51.930;4.492;2023-12-20T11:37:02;101427.00;;;23.27;37.53
79589;BME280;69067;51.930;4.492;2023-12-20T11:39:30;101406.50;;;23.24;37.70
79589;BME280;69067;51.930;4.492;2023-12-20T11:41:56;101407.81;;;23.28;37.54
79589;BME280;69067;51.930;4.492;2023-12-20T11:44:25;101403.59;;;23.26;37.86
79589;BME280;69067;51.930;4.492;2023-12-20T11:46:51;101410.72;;;23.27;37.71
79589;BME280;69067;51.930;4.492;2023-12-20T11:49:18;101410.34;;;23.30;37.51
79589;BME280;69067;51.930;4.492;2023-12-20T11:51:44;101419.88;;;23.26;37.75
79589;BME280;69067;51.930;4.492;2023-12-20T11:54:09;101406.13;;;23.27;37.53
79589;BME280;69067;51.930;4.492;2023-12-20T11:56:36;101415.78;;;23.30;37.52
79589;BME280;69067;51.930;4.492;2023-12-20T11:59:02;101413.69;;;23.32;37.49
79589;BME280;69067;51.930;4.492;2023-12-20T12:01:28;101405.41;;;23.40;37.77
79589;BME280;69067;51.930;4.492;2023-12-20T12:04:06;101410.41;;;23.36;38.10
79589;BME280;69067;51.930;4.492;2023-12-20T12:06:32;101417.25;;;23.32;37.53
79589;BME280;69067;51.930;4.492;2023-12-20T12:08:58;101416.03;;;23.35;37.68
79589;BME280;69067;51.930;4.492;2023-12-20T12:11:24;101413.69;;;23.32;37.22
79589;BME280;69067;51.930;4.492;2023-12-20T12:13:50;101415.84;;;23.36;37.30
79589;BME280;69067;51.930;4.492;2023-12-20T12:16:19;101411.25;;;23.37;37.46
79589;BME280;69067;51.930;4.492;2023-12-20T12:18:45;101386.31;;;23.33;37.53
79589;BME280;69067;51.930;4.492;2023-12-20T12:21:19;101401.00;;;23.39;37.83
79589;BME280;69067;51.930;4.492;2023-12-20T12:23:46;101401.00;;;23.39;37.84
79589;BME280;69067;51.930;4.492;2023-12-20T12:26:11;101403.53;;;23.40;37.17
79589;BME280;69067;51.930;4.492;2023-12-20T12:28:40;101395.56;;;23.39;37.71
79589;BME280;69067;51.930;4.492;2023-12-20T12:31:07;101402.03;;;23.38;37.68
79589;BME280;69067;51.930;4.492;2023-12-20T12:33:33;101386.31;;;23.33;37.71
79589;BME280;69067;51.930;4.492;2023-12-20T12:36:03;101391.75;;;23.33;37.56
79589;BME280;69067;51.930;4.492;2023-12-20T12:38:30;101372.91;;;23.32;37.60
79589;BME280;69067;51.930;4.492;2023-12-20T12:40:56;101377.31;;;23.33;36.91
79589;BME280;69067;51.930;4.492;2023-12-20T12:43:22;101373.94;;;23.31;37.27
79589;BME280;69067;51.930;4.492;2023-12-20T12:45:48;101360.19;;;23.32;37.10
79589;BME280;69067;51.930;4.492;2023-12-20T12:48:14;101362.78;;;23.40;37.39
79589;BME280;69067;51.930;4.492;2023-12-20T12:50:40;101370.41;;;23.30;37.57